createdAt,value
2022-12-17T00:00:39.864Z,59.07
2022-12-17T00:01:44.109Z,58.43
2022-12-17T00:02:48.790Z,59.35
2022-12-17T00:03:53.575Z,58.96
2022-12-17T00:05:01.037Z,59.39
2022-12-17T00:06:05.262Z,59.38
2022-12-17T00:07:10.506Z,59.24
2022-12-17T00:08:14.794Z,58.54
2022-12-17T00:09:19.078Z,59.38
2022-12-17T00:10:23.301Z,59.19
2022-12-17T00:11:27.509Z,58.95
2022-12-17T00:12:31.719Z,58.2
2022-12-17T00:13:37.471Z,58.26
2022-12-17T00:14:42.189Z,59.05
2022-12-17T00:15:46.580Z,58.99
2022-12-17T00:16:50.817Z,58.79
2022-12-17T00:17:57.726Z,58.1
2022-12-17T00:19:02.011Z,58.48
2022-12-17T00:20:06.297Z,58.99
2022-12-17T00:21:11.772Z,58.68
2022-12-17T00:22:16.028Z,59.42
2022-12-17T00:23:20.262Z,58.65
2022-12-17T00:24:24.525Z,59.45
2022-12-17T00:25:28.763Z,58.76
2022-12-17T00:26:32.986Z,59.47
2022-12-17T00:27:37.204Z,58.7
2022-12-17T00:28:41.465Z,59.58
2022-12-17T00:29:45.698Z,59.62
2022-12-17T00:30:49.925Z,58.98
2022-12-17T00:31:57.329Z,58.68
2022-12-17T00:33:01.575Z,59.49
2022-12-17T00:34:05.841Z,59.47
2022-12-17T00:35:10.819Z,59.24
2022-12-17T00:36:15.084Z,59.45
2022-12-17T00:37:19.336Z,59.09
2022-12-17T00:38:23.588Z,59.34
2022-12-17T00:39:27.843Z,59.1
2022-12-17T00:40:32.109Z,59.49
2022-12-17T00:41:36.354Z,59.2
2022-12-17T00:42:40.581Z,59.11
2022-12-17T00:43:44.816Z,59.35
2022-12-17T00:44:49.060Z,58.82
2022-12-17T00:45:53.845Z,59.21
2022-12-17T00:46:58.330Z,58.57
2022-12-17T00:48:02.697Z,58.4
2022-12-17T00:49:06.931Z,58.59
2022-12-17T00:50:11.705Z,58.64
2022-12-17T00:51:15.917Z,59.13
2022-12-17T00:52:20.147Z,58.55
2022-12-17T00:53:24.434Z,59.33
2022-12-17T00:54:28.658Z,58.95
2022-12-17T00:55:32.928Z,58.57
2022-12-17T00:56:37.156Z,58.44
2022-12-17T00:57:41.373Z,58.46
2022-12-17T00:58:45.578Z,58.75
2022-12-17T00:59:49.845Z,58.52
2022-12-17T01:00:57.350Z,59.16
2022-12-17T01:02:02.055Z,58.54
2022-12-17T01:03:06.628Z,59.17
2022-12-17T01:04:11.561Z,58.25
2022-12-17T01:05:15.826Z,58.14
2022-12-17T01:06:20.051Z,58.1
2022-12-17T01:07:24.305Z,58.08
2022-12-17T01:08:28.538Z,58.73
2022-12-17T01:09:32.759Z,58.78
2022-12-17T01:10:37.023Z,58.33
2022-12-17T01:11:41.268Z,58.37
2022-12-17T01:12:45.462Z,58.68
2022-12-17T01:13:49.689Z,58.31
2022-12-17T01:14:53.925Z,58.74
2022-12-17T01:15:59.330Z,58.8
2022-12-17T01:17:03.586Z,58.98
2022-12-17T01:18:07.795Z,59.25
2022-12-17T01:19:12.023Z,58.77
2022-12-17T01:20:16.258Z,58.17
2022-12-17T01:21:20.506Z,58.27
2022-12-17T01:22:24.971Z,58.42
2022-12-17T01:23:29.233Z,59.08
2022-12-17T01:24:33.710Z,59.27
2022-12-17T01:25:37.949Z,59.14
2022-12-17T01:26:42.413Z,59.02
2022-12-17T01:27:46.649Z,59.27
2022-12-17T01:28:50.885Z,58.46
2022-12-17T01:29:55.104Z,58.84
2022-12-17T01:30:59.323Z,59.1
2022-12-17T01:32:03.850Z,59.14
2022-12-17T01:33:08.147Z,58.34
2022-12-17T01:34:12.368Z,58.44
2022-12-17T01:35:16.607Z,58.92
2022-12-17T01:36:20.819Z,58.81
2022-12-17T01:37:25.083Z,58.09
2022-12-17T01:38:29.299Z,58.52
2022-12-17T01:39:33.538Z,58.33
2022-12-17T01:40:37.751Z,58.32
2022-12-17T01:41:42.007Z,58.73
2022-12-17T01:42:46.254Z,58.5
2022-12-17T01:43:50.511Z,58.8
2022-12-17T01:44:54.763Z,58.32
2022-12-17T01:45:59.257Z,57.94
2022-12-17T01:47:03.540Z,58.53
2022-12-17T01:48:07.794Z,58.77
2022-12-17T01:49:12.023Z,58.84
2022-12-17T01:50:16.241Z,58.49
2022-12-17T01:51:20.440Z,58.61
2022-12-17T01:52:24.673Z,58.62
2022-12-17T01:53:28.953Z,58.92
2022-12-17T01:54:33.162Z,58.71
2022-12-17T01:55:37.383Z,58.9
2022-12-17T01:56:41.613Z,58.96
2022-12-17T01:57:45.890Z,59.02
2022-12-17T01:58:50.161Z,58.35
2022-12-17T01:59:54.401Z,58.78
2022-12-17T02:00:58.857Z,58.39
2022-12-17T02:02:03.878Z,58.29
2022-12-17T02:03:08.530Z,58.67
2022-12-17T02:04:12.812Z,58.61
2022-12-17T02:05:17.026Z,58.79
2022-12-17T02:06:21.225Z,58.59
2022-12-17T02:07:25.681Z,58.75
2022-12-17T02:08:29.902Z,58.15
2022-12-17T02:09:34.220Z,58.73
2022-12-17T02:10:38.429Z,58.8
2022-12-17T02:11:42.662Z,58.83
2022-12-17T02:12:46.903Z,58.81
2022-12-17T02:13:51.121Z,58.77
2022-12-17T02:14:57.291Z,58.81
2022-12-17T02:16:01.779Z,58.8
2022-12-17T02:17:05.992Z,58.75
2022-12-17T02:18:10.206Z,58.83
2022-12-17T02:19:14.503Z,58.95
2022-12-17T02:20:18.720Z,58.2
2022-12-17T02:21:22.970Z,58.15
2022-12-17T02:22:27.211Z,58.08
2022-12-17T02:23:31.444Z,58.64
2022-12-17T02:24:35.677Z,58.83
2022-12-17T02:25:39.911Z,58.58
2022-12-17T02:26:44.152Z,58.28
2022-12-17T02:27:48.408Z,58.83
2022-12-17T02:28:52.935Z,58.31
2022-12-17T02:29:58.555Z,58.79
2022-12-17T02:31:02.776Z,58.81
2022-12-17T02:32:07.246Z,58.87
2022-12-17T02:33:11.571Z,58.75
2022-12-17T02:34:15.805Z,58.64
2022-12-17T02:35:20.048Z,58.05
2022-12-17T02:36:24.299Z,58.69
2022-12-17T02:37:28.537Z,58.53
2022-12-17T02:38:32.763Z,58.15
2022-12-17T02:39:37.013Z,58.21
2022-12-17T02:40:41.247Z,58.25
2022-12-17T02:41:45.508Z,58.41
2022-12-17T02:42:49.739Z,58.54
2022-12-17T02:43:53.963Z,58.72
2022-12-17T02:44:59.203Z,57.92
2022-12-17T02:46:03.713Z,58.57
2022-12-17T02:47:08.002Z,58.64
2022-12-17T02:48:12.228Z,58.69
2022-12-17T02:49:16.463Z,58.32
2022-12-17T02:50:20.731Z,58.47
2022-12-17T02:51:24.962Z,58.81
2022-12-17T02:52:36.205Z,58.43
2022-12-17T02:53:40.599Z,58.82
2022-12-17T02:54:44.833Z,58.84
2022-12-17T02:55:49.052Z,58.86
2022-12-17T02:56:53.284Z,58.87
2022-12-17T02:57:57.521Z,58.3
2022-12-17T02:59:02.052Z,58.74
2022-12-17T03:00:06.282Z,58.81
2022-12-17T03:01:12.006Z,58.9
2022-12-17T03:02:16.796Z,58.31
2022-12-17T03:03:21.495Z,58.63
2022-12-17T03:04:25.824Z,58.74
2022-12-17T03:05:47.249Z,58.4
2022-12-17T03:06:51.485Z,58.88
2022-12-17T03:07:55.716Z,58.73
2022-12-17T03:08:59.952Z,58.72
2022-12-17T03:10:04.272Z,58.87
2022-12-17T03:11:08.501Z,58.88
2022-12-17T03:12:13.749Z,58.95
2022-12-17T03:13:18.095Z,58.91
2022-12-17T03:14:22.308Z,58.49
2022-12-17T03:15:26.591Z,58.43
2022-12-17T03:16:38.799Z,58.73
2022-12-17T03:17:43.054Z,58.88
2022-12-17T03:18:47.258Z,58.42
2022-12-17T03:19:51.483Z,58.53
2022-12-17T03:20:55.722Z,58.64
2022-12-17T03:21:59.952Z,58.96
2022-12-17T03:23:04.194Z,58.9
2022-12-17T03:24:10.720Z,58.69
2022-12-17T03:25:14.949Z,59.05
2022-12-17T03:26:19.209Z,59.24
2022-12-17T03:27:23.477Z,59.19
2022-12-17T03:28:27.708Z,59.27
2022-12-17T03:29:31.948Z,59.27
2022-12-17T03:30:42.182Z,58.71
2022-12-17T03:31:47.409Z,59.18
2022-12-17T03:32:51.667Z,58.96
2022-12-17T03:33:55.888Z,59.45
2022-12-17T03:35:00.565Z,59.2
2022-12-17T03:36:04.785Z,59.1
2022-12-17T03:37:08.995Z,59.43
2022-12-17T03:38:14.147Z,59.4
2022-12-17T03:39:18.391Z,59.36
2022-12-17T03:40:22.668Z,59.5
2022-12-17T03:41:26.910Z,59.53
2022-12-17T03:42:31.125Z,59.47
2022-12-17T03:43:36.697Z,59.57
2022-12-17T03:44:41.217Z,58.89
2022-12-17T03:45:45.705Z,58.84
2022-12-17T03:46:50.002Z,58.93
2022-12-17T03:47:54.231Z,58.7
2022-12-17T03:48:58.481Z,59.38
2022-12-17T03:50:02.726Z,59.25
2022-12-17T03:51:06.965Z,59.46
2022-12-17T03:52:11.218Z,59.56
2022-12-17T03:53:15.474Z,58.95
2022-12-17T03:54:19.696Z,59.01
2022-12-17T03:55:23.925Z,58.84
2022-12-17T03:56:28.157Z,59.45
2022-12-17T03:57:32.438Z,58.93
2022-12-17T03:58:36.923Z,58.82
2022-12-17T03:59:41.163Z,59.22
2022-12-17T04:00:45.387Z,58.66
2022-12-17T04:01:49.972Z,59.33
2022-12-17T04:02:54.950Z,58.93
2022-12-17T04:03:59.263Z,59.35
2022-12-17T04:05:03.511Z,59.42
2022-12-17T04:06:07.732Z,59.39
2022-12-17T04:07:11.986Z,59.57
2022-12-17T04:08:16.451Z,59.24
2022-12-17T04:09:20.744Z,59.11
2022-12-17T04:10:24.991Z,59.43
2022-12-17T04:11:29.215Z,59.5
2022-12-17T04:12:33.459Z,59.62
2022-12-17T04:13:43.069Z,59.59
2022-12-17T04:14:47.523Z,59.59
2022-12-17T04:15:51.985Z,59.64
2022-12-17T04:16:56.253Z,59.51
2022-12-17T04:18:00.532Z,59.63
2022-12-17T04:19:04.768Z,59.67
2022-12-17T04:20:08.977Z,59.75
2022-12-17T04:21:13.242Z,59.58
2022-12-17T04:22:17.458Z,59.5
2022-12-17T04:23:21.706Z,59.59
2022-12-17T04:24:25.917Z,59.44
2022-12-17T04:25:30.168Z,59.52
2022-12-17T04:26:34.392Z,59.57
2022-12-17T04:27:38.670Z,59.61
2022-12-17T04:28:42.891Z,59.55
2022-12-17T04:29:47.130Z,59.58
2022-12-17T04:30:51.645Z,59.59
2022-12-17T04:31:55.907Z,59.57
2022-12-17T04:33:00.144Z,59.59
2022-12-17T04:34:04.370Z,59.42
2022-12-17T04:35:08.633Z,59.65
2022-12-17T04:36:12.856Z,59.54
2022-12-17T04:37:17.093Z,59.5
2022-12-17T04:38:21.349Z,59.51
2022-12-17T04:39:25.605Z,58.91
2022-12-17T04:40:29.876Z,59.34
2022-12-17T04:41:34.146Z,58.93
2022-12-17T04:42:38.411Z,59.27
2022-12-17T04:43:42.856Z,59.13
2022-12-17T04:44:47.104Z,59.33
2022-12-17T04:45:51.578Z,59.24
2022-12-17T04:46:55.841Z,59.39
2022-12-17T04:48:00.124Z,59.17
2022-12-17T04:49:04.359Z,59.08
2022-12-17T04:50:08.585Z,59.43
2022-12-17T04:51:12.837Z,59.12
2022-12-17T04:52:17.050Z,59.05
2022-12-17T04:53:21.323Z,59.36
2022-12-17T04:54:25.565Z,58.93
2022-12-17T04:55:29.796Z,59.09
2022-12-17T04:56:34.113Z,58.66
2022-12-17T04:57:38.343Z,59.07
2022-12-17T04:58:42.536Z,59.22
2022-12-17T04:59:46.809Z,59.19
2022-12-17T05:00:51.027Z,59.24
2022-12-17T05:01:55.547Z,59.29
2022-12-17T05:03:00.556Z,59.41
2022-12-17T05:04:05.104Z,59.31
2022-12-17T05:05:09.364Z,59.19
2022-12-17T05:06:14.609Z,59.17
2022-12-17T05:07:18.844Z,58.96
2022-12-17T05:08:23.050Z,58.52
2022-12-17T05:09:27.278Z,58.43
2022-12-17T05:10:31.546Z,58.72
2022-12-17T05:11:35.811Z,58.11
2022-12-17T05:12:40.029Z,57.83
2022-12-17T05:13:44.260Z,57.43
2022-12-17T05:14:48.473Z,57.08
2022-12-17T05:15:55.441Z,56.71
2022-12-17T05:16:59.710Z,56.44
2022-12-17T05:18:03.954Z,56.22
2022-12-17T05:19:08.195Z,55.98
2022-12-17T05:20:12.429Z,55.78
2022-12-17T05:21:16.680Z,55.6
2022-12-17T05:22:20.940Z,55.53
2022-12-17T05:23:25.165Z,55.4
2022-12-17T05:24:29.412Z,55.25
2022-12-17T05:25:33.706Z,55.15
2022-12-17T05:26:37.927Z,55.18
2022-12-17T05:27:42.216Z,55.09
2022-12-17T05:28:46.432Z,55.05
2022-12-17T05:29:50.648Z,55.06
2022-12-17T05:30:55.083Z,54.98
2022-12-17T05:31:59.327Z,55.06
2022-12-17T05:33:03.565Z,55.16
2022-12-17T05:34:07.801Z,55.14
2022-12-17T05:35:12.019Z,55.15
2022-12-17T05:36:16.259Z,55.33
2022-12-17T05:37:20.498Z,55.39
2022-12-17T05:38:24.730Z,55.34
2022-12-17T05:39:28.974Z,55.4
2022-12-17T05:40:33.187Z,55.45
2022-12-17T05:41:37.426Z,55.56
2022-12-17T05:42:41.659Z,55.66
2022-12-17T05:43:45.891Z,55.73
2022-12-17T05:44:50.107Z,55.86
2022-12-17T05:45:54.326Z,56.45
2022-12-17T05:46:58.816Z,56.51
2022-12-17T05:48:03.111Z,56.54
2022-12-17T05:49:07.347Z,56.48
2022-12-17T05:50:11.602Z,56.74
2022-12-17T05:51:15.824Z,56.8
2022-12-17T05:52:20.085Z,56.87
2022-12-17T05:53:24.346Z,56.89
2022-12-17T05:54:28.556Z,57.01
2022-12-17T05:55:32.984Z,57.04
2022-12-17T05:56:37.215Z,57.13
2022-12-17T05:57:41.467Z,57.21
2022-12-17T05:58:45.707Z,57.27
2022-12-17T05:59:49.951Z,57.36
2022-12-17T06:00:54.290Z,57.39
2022-12-17T06:01:59.044Z,57.4
2022-12-17T06:03:04.078Z,57.56
2022-12-17T06:04:08.541Z,57.53
2022-12-17T06:05:12.851Z,57.34
2022-12-17T06:06:17.076Z,57.4
2022-12-17T06:07:21.281Z,57.38
2022-12-17T06:08:25.521Z,57.33
2022-12-17T06:09:29.725Z,57.43
2022-12-17T06:10:33.985Z,57.33
2022-12-17T06:11:38.237Z,57.36
2022-12-17T06:12:42.512Z,57.3
2022-12-17T06:13:46.719Z,57.3
2022-12-17T06:14:50.941Z,57.48
2022-12-17T06:15:55.427Z,57.65
2022-12-17T06:16:59.683Z,57.41
2022-12-17T06:18:03.899Z,57.65
2022-12-17T06:19:08.122Z,57.76
2022-12-17T06:20:12.369Z,57.81
2022-12-17T06:21:16.607Z,57.84
2022-12-17T06:22:20.916Z,57.74
2022-12-17T06:23:25.149Z,57.83
2022-12-17T06:24:29.414Z,57.74
2022-12-17T06:25:33.636Z,57.98
2022-12-17T06:26:37.884Z,57.93
2022-12-17T06:27:42.137Z,57.9
2022-12-17T06:28:46.370Z,57.92
2022-12-17T06:29:50.646Z,58.03
2022-12-17T06:30:54.901Z,57.99
2022-12-17T06:31:59.385Z,58.04
2022-12-17T06:33:03.647Z,58.09
2022-12-17T06:34:07.962Z,58.18
2022-12-17T06:35:12.212Z,58.2
2022-12-17T06:36:24.173Z,58.17
2022-12-17T06:37:28.422Z,58.23
2022-12-17T06:38:32.669Z,58.13
2022-12-17T06:39:36.897Z,58.23
2022-12-17T06:40:41.185Z,58.13
2022-12-17T06:41:45.404Z,58.32
2022-12-17T06:42:49.653Z,58.45
2022-12-17T06:43:53.912Z,58.39
2022-12-17T06:44:58.929Z,58.36
2022-12-17T06:46:03.184Z,58.25
2022-12-17T06:47:07.693Z,58.34
2022-12-17T06:48:14.205Z,58.35
2022-12-17T06:49:18.464Z,58.4
2022-12-17T06:50:22.711Z,58.38
2022-12-17T06:51:26.952Z,58.38
2022-12-17T06:52:31.193Z,58.38
2022-12-17T06:53:36.634Z,58.27
2022-12-17T06:54:41.137Z,58.32
2022-12-17T06:55:45.390Z,58.32
2022-12-17T06:56:49.617Z,58.35
2022-12-17T06:57:53.849Z,58.37
2022-12-17T06:58:58.269Z,58.33
2022-12-17T07:00:02.498Z,58.34
2022-12-17T07:01:09.396Z,58.22
2022-12-17T07:02:14.054Z,58.22
2022-12-17T07:03:18.589Z,58.41
2022-12-17T07:04:22.870Z,58.35
2022-12-17T07:05:27.114Z,58.42
2022-12-17T07:06:31.324Z,58.05
2022-12-17T07:07:35.567Z,58.1
2022-12-17T07:08:39.804Z,58.41
2022-12-17T07:09:44.055Z,58.45
2022-12-17T07:10:48.359Z,58.02
2022-12-17T07:11:52.908Z,58.4
2022-12-17T07:12:57.223Z,58.4
2022-12-17T07:14:01.482Z,58.48
2022-12-17T07:15:05.704Z,58.47
2022-12-17T07:16:11.310Z,58.34
2022-12-17T07:17:15.577Z,58.58
2022-12-17T07:18:19.834Z,58.52
2022-12-17T07:19:29.159Z,58.62
2022-12-17T07:20:33.421Z,58.42
2022-12-17T07:21:37.678Z,58.52
2022-12-17T07:22:41.946Z,58.78
2022-12-17T07:23:46.199Z,58.62
2022-12-17T07:24:50.561Z,58.39
2022-12-17T07:25:55.935Z,58.23
2022-12-17T07:27:00.184Z,58.04
2022-12-17T07:28:04.407Z,57.89
2022-12-17T07:29:08.646Z,57.51
2022-12-17T07:30:12.911Z,57.23
2022-12-17T07:31:19.842Z,56.88
2022-12-17T07:32:24.106Z,56.48
2022-12-17T07:33:28.303Z,55.99
2022-12-17T07:34:32.536Z,55.51
2022-12-17T07:35:37.802Z,55.02
2022-12-17T07:36:42.084Z,54.72
2022-12-17T07:37:46.340Z,54.35
2022-12-17T07:38:50.586Z,54.29
2022-12-17T07:39:54.811Z,54.17
2022-12-17T07:40:59.067Z,53.94
2022-12-17T07:42:03.410Z,53.97
2022-12-17T07:43:07.677Z,53.91
2022-12-17T07:44:12.424Z,53.91
2022-12-17T07:45:16.644Z,53.98
2022-12-17T07:46:23.378Z,54.05
2022-12-17T07:47:27.719Z,54.08
2022-12-17T07:48:31.987Z,54.18
2022-12-17T07:49:36.207Z,54.3
2022-12-17T07:50:40.452Z,54.36
2022-12-17T07:51:44.762Z,54.47
2022-12-17T07:52:49.238Z,54.46
2022-12-17T07:53:54.428Z,54.56
2022-12-17T07:54:58.663Z,54.59
2022-12-17T07:56:02.896Z,54.76
2022-12-17T07:57:07.165Z,54.79
2022-12-17T07:58:11.410Z,54.91
2022-12-17T07:59:15.677Z,54.95
2022-12-17T08:00:19.919Z,55.05
2022-12-17T08:01:24.544Z,55.15
2022-12-17T08:02:29.667Z,55.16
2022-12-17T08:03:34.747Z,55.16
2022-12-17T08:04:39.185Z,55.22
2022-12-17T08:05:43.414Z,55.25
2022-12-17T08:06:48.681Z,55.35
2022-12-17T08:07:52.912Z,55.32
2022-12-17T08:08:57.151Z,55.29
2022-12-17T08:10:01.407Z,55.42
2022-12-17T08:11:05.657Z,55.55
2022-12-17T08:12:09.937Z,55.65
2022-12-17T08:13:16.275Z,55.67
2022-12-17T08:14:20.502Z,55.6
2022-12-17T08:15:24.734Z,55.68
2022-12-17T08:16:29.286Z,55.7
2022-12-17T08:17:33.958Z,55.81
2022-12-17T08:18:38.340Z,55.56
2022-12-17T08:19:42.574Z,55.53
2022-12-17T08:20:46.802Z,55.17
2022-12-17T08:21:51.151Z,54.87
2022-12-17T08:22:56.722Z,54.54
2022-12-17T08:24:00.954Z,54.21
2022-12-17T08:25:05.228Z,53.92
2022-12-17T08:26:09.477Z,53.75
2022-12-17T08:27:13.719Z,53.6
2022-12-17T08:28:52.132Z,53.62
2022-12-17T08:29:56.386Z,53.44
2022-12-17T08:31:01.837Z,53.44
2022-12-17T08:32:06.119Z,53.51
2022-12-17T08:33:10.369Z,53.62
2022-12-17T08:34:14.598Z,53.63
2022-12-17T08:35:18.812Z,53.75
2022-12-17T08:36:23.036Z,53.8
2022-12-17T08:37:27.276Z,53.85
2022-12-17T08:38:34.622Z,53.86
2022-12-17T08:39:38.878Z,53.99
2022-12-17T08:40:43.097Z,54.1
2022-12-17T08:42:04.203Z,54.36
2022-12-17T08:43:08.755Z,54.33
2022-12-17T08:44:13.021Z,54.6
2022-12-17T08:45:17.248Z,54.1
2022-12-17T08:46:21.621Z,53.81
2022-12-17T08:47:25.890Z,52.62
2022-12-17T08:48:30.166Z,52.27
2022-12-17T08:49:34.437Z,51.77
2022-12-17T08:50:38.703Z,51.66
2022-12-17T08:51:42.972Z,51.65
2022-12-17T08:52:47.197Z,51.49
2022-12-17T08:53:51.437Z,51.35
2022-12-17T08:54:55.671Z,51.17
2022-12-17T08:55:59.908Z,51.07
2022-12-17T08:57:04.126Z,51.1
2022-12-17T08:58:08.343Z,50.98
2022-12-17T08:59:12.673Z,51.01
2022-12-17T09:00:16.975Z,50.91
2022-12-17T09:01:21.648Z,50.95
2022-12-17T09:02:26.759Z,51.04
2022-12-17T09:03:31.327Z,51.16
2022-12-17T09:04:35.587Z,51.13
2022-12-17T09:05:40.142Z,51.2
2022-12-17T09:06:44.382Z,51.37
2022-12-17T09:07:48.980Z,51.48
2022-12-17T09:08:53.214Z,51.54
2022-12-17T09:09:57.462Z,51.63
2022-12-17T09:11:01.697Z,51.64
2022-12-17T09:12:05.916Z,51.73
2022-12-17T09:13:10.152Z,51.81
2022-12-17T09:14:14.395Z,51.87
2022-12-17T09:15:19.680Z,51.94
2022-12-17T09:16:24.145Z,52.15
2022-12-17T09:17:28.347Z,52.34
2022-12-17T09:18:32.599Z,52.41
2022-12-17T09:19:36.915Z,52.54
2022-12-17T09:20:41.158Z,52.61
2022-12-17T09:21:45.385Z,52.75
2022-12-17T09:22:49.591Z,52.9
2022-12-17T09:23:53.862Z,53.01
2022-12-17T09:24:58.147Z,53.17
2022-12-17T09:26:04.605Z,53.32
2022-12-17T09:27:08.833Z,53.41
2022-12-17T09:28:13.059Z,53.5
2022-12-17T09:29:17.302Z,53.59
2022-12-17T09:30:21.628Z,53.64
2022-12-17T09:31:26.165Z,53.81
2022-12-17T09:32:30.433Z,53.85
2022-12-17T09:33:35.505Z,53.8
2022-12-17T09:34:40.054Z,53.8
2022-12-17T09:35:44.325Z,53.94
2022-12-17T09:36:53.106Z,53.94
2022-12-17T09:37:57.347Z,53.88
2022-12-17T09:39:01.628Z,54
2022-12-17T09:40:05.858Z,54.08
2022-12-17T09:41:11.410Z,54.05
2022-12-17T09:42:15.713Z,54.13
2022-12-17T09:43:20.991Z,54.47
2022-12-17T09:44:25.210Z,54.3
2022-12-17T09:45:29.431Z,54.25
2022-12-17T09:46:33.829Z,54
2022-12-17T09:47:38.131Z,53.84
2022-12-17T09:48:42.370Z,53.96
2022-12-17T09:49:46.644Z,53.76
2022-12-17T09:50:50.897Z,53.86
2022-12-17T09:51:55.232Z,53.88
2022-12-17T09:52:59.513Z,54.05
2022-12-17T09:54:03.779Z,54.06
2022-12-17T09:55:08.013Z,54.23
2022-12-17T09:56:12.250Z,54.14
2022-12-17T09:57:16.468Z,54.22
2022-12-17T09:58:20.689Z,54.34
2022-12-17T09:59:24.939Z,54.22
2022-12-17T10:00:29.317Z,54.34
2022-12-17T10:01:34.005Z,54.13
2022-12-17T10:02:39.015Z,54.19
2022-12-17T10:03:44.604Z,54.4
2022-12-17T10:04:48.924Z,54.32
2022-12-17T10:05:53.139Z,54.41
2022-12-17T10:06:58.120Z,54.42
2022-12-17T10:08:02.424Z,54.38
2022-12-17T10:09:06.672Z,54.46
2022-12-17T10:10:11.156Z,54.5
2022-12-17T10:11:15.369Z,54.62
2022-12-17T10:12:19.610Z,54.6
2022-12-17T10:13:23.871Z,54.69
2022-12-17T10:14:29.132Z,54.63
2022-12-17T10:15:33.618Z,54.58
2022-12-17T10:16:37.912Z,54.61
2022-12-17T10:17:42.181Z,54.58
2022-12-17T10:18:46.403Z,54.31
2022-12-17T10:19:50.640Z,54.06
2022-12-17T10:20:54.971Z,53.97
2022-12-17T10:21:59.256Z,54.11
2022-12-17T10:23:03.553Z,54
2022-12-17T10:24:07.803Z,54.07
2022-12-17T10:25:12.057Z,54.06
2022-12-17T10:26:16.322Z,54.16
2022-12-17T10:27:20.580Z,54.21
2022-12-17T10:28:24.816Z,54.18
2022-12-17T10:29:29.040Z,54.17
2022-12-17T10:30:33.326Z,54.25
2022-12-17T10:31:37.953Z,54.27
2022-12-17T10:32:42.231Z,54.32
2022-12-17T10:33:46.494Z,54.36
2022-12-17T10:34:50.725Z,54.38
2022-12-17T10:35:54.957Z,54.45
2022-12-17T10:36:59.295Z,54.5
2022-12-17T10:38:03.522Z,54.45
2022-12-17T10:39:07.734Z,54.52
2022-12-17T10:40:11.981Z,54.63
2022-12-17T10:41:16.203Z,54.57
2022-12-17T10:42:20.469Z,54.61
2022-12-17T10:43:24.964Z,54.62
2022-12-17T10:44:30.231Z,54.62
2022-12-17T10:45:34.455Z,54.57
2022-12-17T10:46:38.917Z,54.56
2022-12-17T10:47:43.210Z,54.56
2022-12-17T10:48:47.472Z,54.6
2022-12-17T10:49:51.700Z,54.59
2022-12-17T10:50:55.937Z,54.63
2022-12-17T10:52:00.171Z,54.8
2022-12-17T10:53:04.402Z,54.7
2022-12-17T10:54:08.677Z,54.72
2022-12-17T10:55:12.926Z,54.71
2022-12-17T10:56:17.170Z,54.9
2022-12-17T10:57:21.397Z,54.83
2022-12-17T10:58:25.650Z,54.84
2022-12-17T10:59:29.938Z,54.73
2022-12-17T11:00:34.173Z,54.76
2022-12-17T11:01:38.881Z,54.76
2022-12-17T11:02:43.973Z,54.76
2022-12-17T11:03:48.648Z,54.84
2022-12-17T11:04:52.911Z,54.82
2022-12-17T11:06:01.818Z,55
2022-12-17T11:07:06.365Z,54.97
2022-12-17T11:08:10.581Z,54.94
2022-12-17T11:09:14.821Z,54.91
2022-12-17T11:10:19.091Z,54.97
2022-12-17T11:11:23.352Z,55.03
2022-12-17T11:12:32.508Z,55.05
2022-12-17T11:13:38.071Z,55.15
2022-12-17T11:14:42.521Z,55.07
2022-12-17T11:15:46.976Z,55.07
2022-12-17T11:16:51.273Z,55.09
2022-12-17T11:17:55.538Z,55.07
2022-12-17T11:18:59.785Z,55.14
2022-12-17T11:20:04.006Z,55.13
2022-12-17T11:21:08.296Z,55.15
2022-12-17T11:22:12.519Z,55.13
2022-12-17T11:23:16.783Z,55.05
2022-12-17T11:24:24.454Z,55.22
2022-12-17T11:25:28.708Z,55.08
2022-12-17T11:26:32.927Z,55.08
2022-12-17T11:27:37.140Z,55.2
2022-12-17T11:28:41.389Z,55.09
2022-12-17T11:29:45.615Z,55.19
2022-12-17T11:30:50.060Z,55.15
2022-12-17T11:31:54.281Z,55.15
2022-12-17T11:32:58.508Z,55.16
2022-12-17T11:34:02.757Z,55.09
2022-12-17T11:35:07.032Z,55.16
2022-12-17T11:36:11.268Z,55.28
2022-12-17T11:37:15.511Z,55.22
2022-12-17T11:38:19.798Z,55.14
2022-12-17T11:39:24.097Z,55.11
2022-12-17T11:40:28.354Z,55.1
2022-12-17T11:41:32.577Z,55.12
2022-12-17T11:42:37.839Z,55.21
2022-12-17T11:43:42.126Z,55.16
2022-12-17T11:44:46.371Z,55.22
2022-12-17T11:45:50.594Z,55.16
2022-12-17T11:46:55.078Z,54.87
2022-12-17T11:48:01.512Z,54.29
2022-12-17T11:49:05.744Z,54.66
2022-12-17T11:50:10.004Z,54.51
2022-12-17T11:51:14.260Z,54.45
2022-12-17T11:52:18.546Z,54.26
2022-12-17T11:53:29.624Z,54.23
2022-12-17T11:54:33.880Z,54
2022-12-17T11:55:38.130Z,53.85
2022-12-17T11:56:42.418Z,53.79
2022-12-17T11:57:46.627Z,53.83
2022-12-17T11:58:53.114Z,53.65
2022-12-17T12:00:05.610Z,53.65
2022-12-17T12:01:09.870Z,53.48
2022-12-17T12:02:14.169Z,53.31
2022-12-17T12:03:21.323Z,53.36
2022-12-17T12:04:25.880Z,53.02
2022-12-17T12:05:30.110Z,53.22
2022-12-17T12:06:34.378Z,53.14
2022-12-17T12:07:38.617Z,53.01
2022-12-17T12:08:42.881Z,52.93
2022-12-17T12:09:47.114Z,52.54
2022-12-17T12:10:51.322Z,52.6
2022-12-17T12:11:56.353Z,52.72
2022-12-17T12:13:00.616Z,52.57
2022-12-17T12:14:04.842Z,52.8
2022-12-17T12:15:09.089Z,52.97
2022-12-17T12:16:13.551Z,52.67
2022-12-17T12:17:17.846Z,52.56
2022-12-17T12:18:22.078Z,52.64
2022-12-17T12:19:26.360Z,52.61
2022-12-17T12:20:30.583Z,52.34
2022-12-17T12:21:34.817Z,52.33
2022-12-17T12:22:39.033Z,52.29
2022-12-17T12:23:43.264Z,52.16
2022-12-17T12:24:47.531Z,52.14
2022-12-17T12:25:51.737Z,52.08
2022-12-17T12:26:55.948Z,52.33
2022-12-17T12:28:00.167Z,51.99
2022-12-17T12:29:04.671Z,52.26
2022-12-17T12:30:08.949Z,52.04
2022-12-17T12:31:13.419Z,52.07
2022-12-17T12:32:17.748Z,51.77
2022-12-17T12:33:22.249Z,51.96
2022-12-17T12:34:26.515Z,51.75
2022-12-17T12:35:30.826Z,51.56
2022-12-17T12:36:35.088Z,51.6
2022-12-17T12:37:39.306Z,51.68
2022-12-17T12:38:49.270Z,51.59
2022-12-17T12:39:53.757Z,51.67
2022-12-17T12:40:58.014Z,51.64
2022-12-17T12:42:02.269Z,51.8
2022-12-17T12:43:06.477Z,51.8
2022-12-17T12:44:10.699Z,51.87
2022-12-17T12:45:14.972Z,52.17
2022-12-17T12:46:19.560Z,51.97
2022-12-17T12:47:23.821Z,52.12
2022-12-17T12:48:28.165Z,52.12
2022-12-17T12:49:32.621Z,52.21
2022-12-17T12:50:36.847Z,52.38
2022-12-17T12:51:41.073Z,52.33
2022-12-17T12:52:45.304Z,52.33
2022-12-17T12:53:49.576Z,52.33
2022-12-17T12:54:53.825Z,52.39
2022-12-17T12:55:58.066Z,52.41
2022-12-17T12:57:02.307Z,52.44
2022-12-17T12:58:06.539Z,52.42
2022-12-17T12:59:10.782Z,52.42
2022-12-17T13:00:14.990Z,52.6
2022-12-17T13:01:19.607Z,52.46
2022-12-17T13:02:24.368Z,52.49
2022-12-17T13:03:40.407Z,52.55
2022-12-17T13:04:44.712Z,52.51
2022-12-17T13:05:48.936Z,52.66
2022-12-17T13:06:53.208Z,52.69
2022-12-17T13:07:57.408Z,52.98
2022-12-17T13:09:01.638Z,52.95
2022-12-17T13:10:05.861Z,52.96
2022-12-17T13:11:10.080Z,52.92
2022-12-17T13:12:14.347Z,53.2
2022-12-17T13:13:18.622Z,53.29
2022-12-17T13:14:22.855Z,53.27
2022-12-17T13:15:34.256Z,53.4
2022-12-17T13:16:38.752Z,53.35
2022-12-17T13:17:43.044Z,53.81
2022-12-17T13:18:47.328Z,53.57
2022-12-17T13:19:51.580Z,53.62
2022-12-17T13:20:55.815Z,53.59
2022-12-17T13:22:00.073Z,53.74
2022-12-17T13:23:04.305Z,53.78
2022-12-17T13:24:08.538Z,53.76
2022-12-17T13:25:12.831Z,53.76
2022-12-17T13:26:17.049Z,53.83
2022-12-17T13:27:21.345Z,53.9
2022-12-17T13:28:27.866Z,54.05
2022-12-17T13:29:32.408Z,53.94
2022-12-17T13:30:36.660Z,53.98
2022-12-17T13:31:41.080Z,54.04
2022-12-17T13:32:45.358Z,54.1
2022-12-17T13:33:49.622Z,54.12
2022-12-17T13:34:53.862Z,54.06
2022-12-17T13:35:58.125Z,54.13
2022-12-17T13:37:02.365Z,54.1
2022-12-17T13:38:06.602Z,54.06
2022-12-17T13:39:10.854Z,54.02
2022-12-17T13:40:15.093Z,53.97
2022-12-17T13:41:19.352Z,54.13
2022-12-17T13:42:23.610Z,54.25
2022-12-17T13:43:27.840Z,54.27
2022-12-17T13:44:32.074Z,54.31
2022-12-17T13:45:36.845Z,54.35
2022-12-17T13:46:48.606Z,54.32
2022-12-17T13:47:52.879Z,54.35
2022-12-17T13:48:57.308Z,54.35
2022-12-17T13:50:37.015Z,54.31
2022-12-17T13:51:41.350Z,54.34
2022-12-17T13:52:45.593Z,54.19
2022-12-17T13:53:49.841Z,54.29
2022-12-17T13:54:55.429Z,54.31
2022-12-17T13:56:01.692Z,54.38